Akutan, Alaska
Current Conditions -  °F | °C
As of 3:15 AM on Friday 31 Oct 2014 (Local Time) from PAUT Reporting Station
Overcast Overcast  
Wind Chill: 41°   Ceiling: 3900
Heat Index: 47°   Visibility: 10mi
Dew Point: 37°   Wind: 17mph
Humidity: 67%   Direction: 260°W
Pressure: 29"   Gusts: 35mph
Location:  54.14°N, 165.77°W
Report Text: PAUT 311115Z AUTO 26015G30KT 10SM BKN039 BKN048 OVC050 09/03 A2900 RMK AO2 T00850027
Loading
Personal Weather Stations






























Interactive Weather Map
Tropical Storm Tracking
New forecast layout! Learn more

10-Day Weather Forecast

Advertisements
Track Severe Weather on mobile